sensor_id;sensor_type;location;lat;lon;timestamp;P1;durP1;ratioP1;P2;durP2;ratioP2
33794;SDS011;51430;52.242;21.118;2022-07-23T00:00:48;13.80;;;11.40;;
33794;SDS011;51430;52.242;21.118;2022-07-23T00:03:16;14.60;;;10.70;;
33794;SDS011;51430;52.242;21.118;2022-07-23T00:05:44;11.50;;;10.50;;
33794;SDS011;51430;52.242;21.118;2022-07-23T00:08:11;15.70;;;10.80;;
33794;SDS011;51430;52.242;21.118;2022-07-23T00:10:40;12.60;;;11.10;;
33794;SDS011;51430;52.242;21.118;2022-07-23T00:13:09;12.50;;;10.40;;
33794;SDS011;51430;52.242;21.118;2022-07-23T00:15:37;12.40;;;10.70;;
33794;SDS011;51430;52.242;21.118;2022-07-23T00:18:05;12.50;;;11.30;;
33794;SDS011;51430;52.242;21.118;2022-07-23T00:20:33;16.30;;;10.40;;
33794;SDS011;51430;52.242;21.118;2022-07-23T00:23:01;14.50;;;13.20;;
33794;SDS011;51430;52.242;21.118;2022-07-23T00:25:29;13.20;;;11.80;;
33794;SDS011;51430;52.242;21.118;2022-07-23T00:27:59;11.60;;;10.20;;
33794;SDS011;51430;52.242;21.118;2022-07-23T00:30:28;14.80;;;10.90;;
33794;SDS011;51430;52.242;21.118;2022-07-23T00:32:59;13.50;;;12.20;;
33794;SDS011;51430;52.242;21.118;2022-07-23T00:35:32;16.60;;;13.90;;
33794;SDS011;51430;52.242;21.118;2022-07-23T00:38:09;15.00;;;13.60;;
33794;SDS011;51430;52.242;21.118;2022-07-23T00:40:38;15.50;;;11.60;;
33794;SDS011;51430;52.242;21.118;2022-07-23T00:43:07;13.60;;;10.90;;
33794;SDS011;51430;52.242;21.118;2022-07-23T00:45:35;12.60;;;11.10;;
33794;SDS011;51430;52.242;21.118;2022-07-23T00:48:03;12.80;;;11.60;;
33794;SDS011;51430;52.242;21.118;2022-07-23T00:50:32;14.20;;;11.40;;
33794;SDS011;51430;52.242;21.118;2022-07-23T00:53:00;13.00;;;11.70;;
33794;SDS011;51430;52.242;21.118;2022-07-23T00:55:29;13.80;;;11.00;;
33794;SDS011;51430;52.242;21.118;2022-07-23T00:57:57;15.10;;;12.20;;
33794;SDS011;51430;52.242;21.118;2022-07-23T01:00:26;15.30;;;12.30;;
33794;SDS011;51430;52.242;21.118;2022-07-23T01:02:54;18.90;;;13.70;;
33794;SDS011;51430;52.242;21.118;2022-07-23T01:05:22;15.30;;;12.30;;
33794;SDS011;51430;52.242;21.118;2022-07-23T01:07:51;14.50;;;12.50;;
33794;SDS011;51430;52.242;21.118;2022-07-23T01:10:23;13.20;;;11.80;;
33794;SDS011;51430;52.242;21.118;2022-07-23T01:13:06;16.30;;;12.10;;
33794;SDS011;51430;52.242;21.118;2022-07-23T01:15:36;14.60;;;11.60;;
33794;SDS011;51430;52.242;21.118;2022-07-23T01:18:06;14.20;;;11.80;;
33794;SDS011;51430;52.242;21.118;2022-07-23T01:20:35;17.60;;;12.90;;
33794;SDS011;51430;52.242;21.118;2022-07-23T01:23:04;14.10;;;12.20;;
33794;SDS011;51430;52.242;21.118;2022-07-23T01:25:32;16.70;;;12.70;;
33794;SDS011;51430;52.242;21.118;2022-07-23T01:28:00;16.70;;;12.90;;
33794;SDS011;51430;52.242;21.118;2022-07-23T01:30:28;14.40;;;12.70;;
33794;SDS011;51430;52.242;21.118;2022-07-23T01:32:56;13.80;;;12.40;;
33794;SDS011;51430;52.242;21.118;2022-07-23T01:35:24;13.70;;;12.40;;
33794;SDS011;51430;52.242;21.118;2022-07-23T01:37:52;15.10;;;12.80;;
33794;SDS011;51430;52.242;21.118;2022-07-23T01:40:21;18.10;;;12.80;;
33794;SDS011;51430;52.242;21.118;2022-07-23T01:42:49;18.60;;;13.70;;
33794;SDS011;51430;52.242;21.118;2022-07-23T01:45:18;18.50;;;12.40;;
33794;SDS011;51430;52.242;21.118;2022-07-23T01:47:46;15.20;;;13.50;;
33794;SDS011;51430;52.242;21.118;2022-07-23T01:50:15;14.60;;;13.20;;
33794;SDS011;51430;52.242;21.118;2022-07-23T01:52:42;13.90;;;12.50;;
33794;SDS011;51430;52.242;21.118;2022-07-23T01:55:11;14.80;;;13.30;;
33794;SDS011;51430;52.242;21.118;2022-07-23T01:57:46;14.30;;;12.80;;
33794;SDS011;51430;52.242;21.118;2022-07-23T02:00:14;14.20;;;12.70;;
33794;SDS011;51430;52.242;21.118;2022-07-23T02:02:42;14.20;;;12.40;;
33794;SDS011;51430;52.242;21.118;2022-07-23T02:05:10;17.30;;;12.80;;
33794;SDS011;51430;52.242;21.118;2022-07-23T02:07:38;16.70;;;13.10;;
33794;SDS011;51430;52.242;21.118;2022-07-23T02:10:06;16.00;;;12.60;;
33794;SDS011;51430;52.242;21.118;2022-07-23T02:12:35;14.30;;;12.80;;
33794;SDS011;51430;52.242;21.118;2022-07-23T02:15:03;18.50;;;13.40;;
33794;SDS011;51430;52.242;21.118;2022-07-23T02:17:32;14.60;;;13.30;;
33794;SDS011;51430;52.242;21.118;2022-07-23T02:20:00;15.80;;;13.30;;
33794;SDS011;51430;52.242;21.118;2022-07-23T02:22:28;15.60;;;14.10;;
33794;SDS011;51430;52.242;21.118;2022-07-23T02:24:56;14.90;;;13.30;;
33794;SDS011;51430;52.242;21.118;2022-07-23T02:27:24;14.30;;;12.90;;
33794;SDS011;51430;52.242;21.118;2022-07-23T02:29:52;15.10;;;13.50;;
33794;SDS011;51430;52.242;21.118;2022-07-23T02:32:20;16.90;;;13.50;;
33794;SDS011;51430;52.242;21.118;2022-07-23T02:34:51;14.90;;;13.40;;
33794;SDS011;51430;52.242;21.118;2022-07-23T02:37:19;14.60;;;13.10;;
33794;SDS011;51430;52.242;21.118;2022-07-23T02:39:47;15.60;;;14.00;;
33794;SDS011;51430;52.242;21.118;2022-07-23T02:42:18;15.10;;;13.50;;
33794;SDS011;51430;52.242;21.118;2022-07-23T02:44:46;14.10;;;12.60;;
33794;SDS011;51430;52.242;21.118;2022-07-23T02:47:14;15.20;;;13.60;;
33794;SDS011;51430;52.242;21.118;2022-07-23T02:49:42;15.20;;;13.90;;
33794;SDS011;51430;52.242;21.118;2022-07-23T02:52:10;14.70;;;13.40;;
33794;SDS011;51430;52.242;21.118;2022-07-23T02:54:38;14.90;;;13.40;;
33794;SDS011;51430;52.242;21.118;2022-07-23T02:57:06;16.80;;;13.20;;
33794;SDS011;51430;52.242;21.118;2022-07-23T02:59:34;15.00;;;13.70;;
33794;SDS011;51430;52.242;21.118;2022-07-23T03:02:02;14.80;;;13.10;;
33794;SDS011;51430;52.242;21.118;2022-07-23T03:04:30;21.70;;;13.90;;
33794;SDS011;51430;52.242;21.118;2022-07-23T03:06:58;15.60;;;14.00;;
33794;SDS011;51430;52.242;21.118;2022-07-23T03:09:26;15.50;;;13.10;;
33794;SDS011;51430;52.242;21.118;2022-07-23T03:11:54;14.90;;;13.40;;
33794;SDS011;51430;52.242;21.118;2022-07-23T03:14:22;17.20;;;13.60;;
33794;SDS011;51430;52.242;21.118;2022-07-23T03:16:50;15.80;;;13.70;;
33794;SDS011;51430;52.242;21.118;2022-07-23T03:19:18;15.00;;;13.60;;
33794;SDS011;51430;52.242;21.118;2022-07-23T03:21:46;14.70;;;13.40;;
33794;SDS011;51430;52.242;21.118;2022-07-23T03:24:14;16.30;;;13.30;;
33794;SDS011;51430;52.242;21.118;2022-07-23T03:26:42;15.40;;;13.70;;
33794;SDS011;51430;52.242;21.118;2022-07-23T03:29:10;15.50;;;13.70;;
33794;SDS011;51430;52.242;21.118;2022-07-23T03:31:38;15.60;;;13.40;;
33794;SDS011;51430;52.242;21.118;2022-07-23T03:34:06;15.30;;;13.70;;
33794;SDS011;51430;52.242;21.118;2022-07-23T03:36:34;16.80;;;13.10;;
33794;SDS011;51430;52.242;21.118;2022-07-23T03:39:04;15.70;;;14.10;;
33794;SDS011;51430;52.242;21.118;2022-07-23T03:41:32;15.10;;;13.40;;
33794;SDS011;51430;52.242;21.118;2022-07-23T03:44:00;14.10;;;12.70;;
33794;SDS011;51430;52.242;21.118;2022-07-23T03:46:28;15.40;;;13.10;;
33794;SDS011;51430;52.242;21.118;2022-07-23T03:48:56;14.20;;;12.80;;
33794;SDS011;51430;52.242;21.118;2022-07-23T03:51:26;16.50;;;12.50;;
33794;SDS011;51430;52.242;21.118;2022-07-23T03:53:54;15.60;;;13.70;;
33794;SDS011;51430;52.242;21.118;2022-07-23T03:56:23;15.40;;;13.20;;
33794;SDS011;51430;52.242;21.118;2022-07-23T03:58:51;14.50;;;13.00;;
33794;SDS011;51430;52.242;21.118;2022-07-23T04:01:19;14.50;;;13.20;;
33794;SDS011;51430;52.242;21.118;2022-07-23T04:03:47;16.60;;;13.70;;
33794;SDS011;51430;52.242;21.118;2022-07-23T04:06:15;15.00;;;12.80;;
33794;SDS011;51430;52.242;21.118;2022-07-23T04:08:43;15.40;;;12.60;;
33794;SDS011;51430;52.242;21.118;2022-07-23T04:11:11;15.10;;;13.30;;
33794;SDS011;51430;52.242;21.118;2022-07-23T04:13:39;15.20;;;13.00;;
33794;SDS011;51430;52.242;21.118;2022-07-23T04:16:07;14.40;;;13.00;;
33794;SDS011;51430;52.242;21.118;2022-07-23T04:18:36;14.80;;;13.30;;
33794;SDS011;51430;52.242;21.118;2022-07-23T04:21:04;14.80;;;13.00;;
33794;SDS011;51430;52.242;21.118;2022-07-23T04:23:32;14.00;;;12.90;;
33794;SDS011;51430;52.242;21.118;2022-07-23T04:26:00;15.20;;;12.50;;
33794;SDS011;51430;52.242;21.118;2022-07-23T04:28:28;14.60;;;13.10;;
33794;SDS011;51430;52.242;21.118;2022-07-23T04:30:57;14.50;;;13.00;;
33794;SDS011;51430;52.242;21.118;2022-07-23T04:33:25;14.40;;;12.70;;
33794;SDS011;51430;52.242;21.118;2022-07-23T04:35:53;14.20;;;12.90;;
33794;SDS011;51430;52.242;21.118;2022-07-23T04:38:21;14.00;;;12.70;;
33794;SDS011;51430;52.242;21.118;2022-07-23T04:40:49;15.50;;;12.40;;
33794;SDS011;51430;52.242;21.118;2022-07-23T04:43:18;20.40;;;12.30;;
33794;SDS011;51430;52.242;21.118;2022-07-23T04:45:46;13.50;;;11.70;;
33794;SDS011;51430;52.242;21.118;2022-07-23T04:48:15;14.60;;;11.40;;
33794;SDS011;51430;52.242;21.118;2022-07-23T04:50:44;13.80;;;12.40;;
33794;SDS011;51430;52.242;21.118;2022-07-23T04:53:12;14.40;;;12.50;;
33794;SDS011;51430;52.242;21.118;2022-07-23T04:55:40;14.80;;;12.30;;
33794;SDS011;51430;52.242;21.118;2022-07-23T04:58:08;13.60;;;12.10;;
33794;SDS011;51430;52.242;21.118;2022-07-23T05:00:36;12.80;;;11.20;;
33794;SDS011;51430;52.242;21.118;2022-07-23T05:03:03;14.80;;;13.30;;
33794;SDS011;51430;52.242;21.118;2022-07-23T05:05:32;15.30;;;13.70;;
33794;SDS011;51430;52.242;21.118;2022-07-23T05:08:00;18.00;;;13.60;;
33794;SDS011;51430;52.242;21.118;2022-07-23T05:10:28;16.90;;;13.70;;
33794;SDS011;51430;52.242;21.118;2022-07-23T05:12:56;16.10;;;13.90;;
33794;SDS011;51430;52.242;21.118;2022-07-23T05:15:24;16.00;;;14.30;;
33794;SDS011;51430;52.242;21.118;2022-07-23T05:17:52;17.70;;;13.50;;
33794;SDS011;51430;52.242;21.118;2022-07-23T05:20:20;14.30;;;12.90;;
33794;SDS011;51430;52.242;21.118;2022-07-23T05:22:48;17.00;;;12.90;;
33794;SDS011;51430;52.242;21.118;2022-07-23T05:25:16;12.60;;;11.40;;
33794;SDS011;51430;52.242;21.118;2022-07-23T05:27:44;13.60;;;12.20;;
33794;SDS011;51430;52.242;21.118;2022-07-23T05:30:12;14.20;;;12.10;;
33794;SDS011;51430;52.242;21.118;2022-07-23T05:32:40;14.60;;;11.40;;
33794;SDS011;51430;52.242;21.118;2022-07-23T05:35:08;13.10;;;11.70;;
33794;SDS011;51430;52.242;21.118;2022-07-23T05:37:37;16.90;;;10.70;;
33794;SDS011;51430;52.242;21.118;2022-07-23T05:40:05;12.10;;;11.00;;
33794;SDS011;51430;52.242;21.118;2022-07-23T05:42:39;12.00;;;10.90;;
33794;SDS011;51430;52.242;21.118;2022-07-23T05:45:10;12.70;;;11.30;;
33794;SDS011;51430;52.242;21.118;2022-07-23T05:47:39;11.70;;;10.50;;
33794;SDS011;51430;52.242;21.118;2022-07-23T05:50:14;17.50;;;10.20;;
33794;SDS011;51430;52.242;21.118;2022-07-23T05:52:43;10.40;;;9.40;;
33794;SDS011;51430;52.242;21.118;2022-07-23T05:55:12;10.90;;;9.60;;
33794;SDS011;51430;52.242;21.118;2022-07-23T05:57:40;12.80;;;10.60;;
33794;SDS011;51430;52.242;21.118;2022-07-23T06:00:09;10.20;;;9.20;;
33794;SDS011;51430;52.242;21.118;2022-07-23T06:02:39;11.40;;;8.40;;
33794;SDS011;51430;52.242;21.118;2022-07-23T06:05:07;10.10;;;9.00;;
33794;SDS011;51430;52.242;21.118;2022-07-23T06:07:36;11.60;;;9.30;;
33794;SDS011;51430;52.242;21.118;2022-07-23T06:10:04;10.40;;;9.30;;
33794;SDS011;51430;52.242;21.118;2022-07-23T06:12:33;11.60;;;8.90;;
33794;SDS011;51430;52.242;21.118;2022-07-23T06:15:01;11.70;;;8.50;;
33794;SDS011;51430;52.242;21.118;2022-07-23T06:17:30;9.90;;;8.90;;
33794;SDS011;51430;52.242;21.118;2022-07-23T06:19:58;13.80;;;9.30;;
33794;SDS011;51430;52.242;21.118;2022-07-23T06:22:26;12.30;;;9.40;;
33794;SDS011;51430;52.242;21.118;2022-07-23T06:24:54;8.60;;;7.70;;
33794;SDS011;51430;52.242;21.118;2022-07-23T06:27:23;9.40;;;8.60;;
33794;SDS011;51430;52.242;21.118;2022-07-23T06:29:53;8.60;;;7.70;;
33794;SDS011;51430;52.242;21.118;2022-07-23T06:32:21;9.60;;;8.60;;
33794;SDS011;51430;52.242;21.118;2022-07-23T06:34:49;9.20;;;7.90;;
33794;SDS011;51430;52.242;21.118;2022-07-23T06:37:17;8.60;;;7.80;;
33794;SDS011;51430;52.242;21.118;2022-07-23T06:39:45;9.50;;;8.20;;
33794;SDS011;51430;52.242;21.118;2022-07-23T06:42:13;8.70;;;7.60;;
33794;SDS011;51430;52.242;21.118;2022-07-23T06:44:42;7.90;;;7.20;;
33794;SDS011;51430;52.242;21.118;2022-07-23T06:47:10;8.80;;;8.00;;
33794;SDS011;51430;52.242;21.118;2022-07-23T06:49:38;10.10;;;8.00;;
33794;SDS011;51430;52.242;21.118;2022-07-23T06:52:08;10.30;;;8.30;;
33794;SDS011;51430;52.242;21.118;2022-07-23T06:54:36;9.60;;;8.10;;
33794;SDS011;51430;52.242;21.118;2022-07-23T06:57:04;10.80;;;8.50;;
33794;SDS011;51430;52.242;21.118;2022-07-23T06:59:32;10.30;;;7.40;;
33794;SDS011;51430;52.242;21.118;2022-07-23T07:02:03;10.30;;;7.80;;
33794;SDS011;51430;52.242;21.118;2022-07-23T07:04:32;9.90;;;7.50;;
33794;SDS011;51430;52.242;21.118;2022-07-23T07:07:00;9.80;;;7.10;;
33794;SDS011;51430;52.242;21.118;2022-07-23T07:09:28;8.30;;;7.30;;
33794;SDS011;51430;52.242;21.118;2022-07-23T07:11:56;9.30;;;7.40;;
33794;SDS011;51430;52.242;21.118;2022-07-23T07:14:24;10.60;;;8.10;;
33794;SDS011;51430;52.242;21.118;2022-07-23T07:16:52;9.10;;;7.50;;
33794;SDS011;51430;52.242;21.118;2022-07-23T07:19:20;10.90;;;7.30;;
33794;SDS011;51430;52.242;21.118;2022-07-23T07:21:49;8.50;;;7.40;;
33794;SDS011;51430;52.242;21.118;2022-07-23T07:24:17;11.10;;;7.60;;
33794;SDS011;51430;52.242;21.118;2022-07-23T07:26:45;8.80;;;7.30;;
33794;SDS011;51430;52.242;21.118;2022-07-23T07:29:15;9.40;;;7.10;;
33794;SDS011;51430;52.242;21.118;2022-07-23T07:31:43;9.50;;;7.90;;
33794;SDS011;51430;52.242;21.118;2022-07-23T07:34:11;11.80;;;7.70;;
33794;SDS011;51430;52.242;21.118;2022-07-23T07:36:39;9.00;;;7.00;;
33794;SDS011;51430;52.242;21.118;2022-07-23T07:39:07;7.70;;;7.00;;
33794;SDS011;51430;52.242;21.118;2022-07-23T07:41:38;9.10;;;6.80;;
33794;SDS011;51430;52.242;21.118;2022-07-23T07:44:06;9.40;;;7.30;;
33794;SDS011;51430;52.242;21.118;2022-07-23T07:46:34;8.60;;;7.30;;
33794;SDS011;51430;52.242;21.118;2022-07-23T07:49:02;7.20;;;6.50;;
33794;SDS011;51430;52.242;21.118;2022-07-23T07:51:32;8.70;;;6.40;;
33794;SDS011;51430;52.242;21.118;2022-07-23T07:54:00;6.80;;;6.20;;
33794;SDS011;51430;52.242;21.118;2022-07-23T07:56:30;11.40;;;6.40;;
33794;SDS011;51430;52.242;21.118;2022-07-23T07:58:58;7.90;;;7.10;;
33794;SDS011;51430;52.242;21.118;2022-07-23T08:01:26;7.10;;;6.50;;
33794;SDS011;51430;52.242;21.118;2022-07-23T08:03:55;6.90;;;6.40;;
33794;SDS011;51430;52.242;21.118;2022-07-23T08:06:23;7.90;;;7.20;;
33794;SDS011;51430;52.242;21.118;2022-07-23T08:08:51;10.50;;;6.70;;
33794;SDS011;51430;52.242;21.118;2022-07-23T08:11:19;7.10;;;6.40;;
33794;SDS011;51430;52.242;21.118;2022-07-23T08:13:48;7.20;;;6.40;;
33794;SDS011;51430;52.242;21.118;2022-07-23T08:16:16;7.00;;;6.30;;
33794;SDS011;51430;52.242;21.118;2022-07-23T08:18:45;6.90;;;6.30;;
33794;SDS011;51430;52.242;21.118;2022-07-23T08:21:14;11.10;;;6.40;;
33794;SDS011;51430;52.242;21.118;2022-07-23T08:23:42;7.70;;;7.00;;
33794;SDS011;51430;52.242;21.118;2022-07-23T08:26:10;8.30;;;6.30;;
33794;SDS011;51430;52.242;21.118;2022-07-23T08:28:38;8.60;;;6.50;;
33794;SDS011;51430;52.242;21.118;2022-07-23T08:31:06;7.90;;;6.10;;
33794;SDS011;51430;52.242;21.118;2022-07-23T08:33:35;7.50;;;6.40;;
33794;SDS011;51430;52.242;21.118;2022-07-23T08:36:03;7.10;;;6.40;;
33794;SDS011;51430;52.242;21.118;2022-07-23T08:38:32;6.40;;;5.90;;
33794;SDS011;51430;52.242;21.118;2022-07-23T08:41:03;8.10;;;5.70;;
33794;SDS011;51430;52.242;21.118;2022-07-23T08:43:32;9.40;;;6.90;;
33794;SDS011;51430;52.242;21.118;2022-07-23T08:46:03;8.20;;;6.60;;
33794;SDS011;51430;52.242;21.118;2022-07-23T08:48:33;6.80;;;6.10;;
33794;SDS011;51430;52.242;21.118;2022-07-23T08:51:07;8.10;;;6.60;;
33794;SDS011;51430;52.242;21.118;2022-07-23T08:53:37;6.70;;;6.00;;
33794;SDS011;51430;52.242;21.118;2022-07-23T08:56:06;6.80;;;6.20;;
33794;SDS011;51430;52.242;21.118;2022-07-23T08:58:36;7.60;;;6.80;;
33794;SDS011;51430;52.242;21.118;2022-07-23T09:01:05;7.90;;;6.50;;
33794;SDS011;51430;52.242;21.118;2022-07-23T09:03:34;7.60;;;6.70;;
33794;SDS011;51430;52.242;21.118;2022-07-23T09:06:04;6.80;;;6.20;;
33794;SDS011;51430;52.242;21.118;2022-07-23T09:08:45;7.50;;;6.40;;
33794;SDS011;51430;52.242;21.118;2022-07-23T09:11:18;6.10;;;5.70;;
33794;SDS011;51430;52.242;21.118;2022-07-23T09:13:52;9.40;;;5.90;;
33794;SDS011;51430;52.242;21.118;2022-07-23T09:16:29;6.60;;;5.80;;
33794;SDS011;51430;52.242;21.118;2022-07-23T09:18:59;6.40;;;5.80;;
33794;SDS011;51430;52.242;21.118;2022-07-23T09:21:30;6.50;;;5.70;;
33794;SDS011;51430;52.242;21.118;2022-07-23T09:24:01;5.60;;;5.10;;
33794;SDS011;51430;52.242;21.118;2022-07-23T09:26:32;5.50;;;4.90;;
33794;SDS011;51430;52.242;21.118;2022-07-23T09:29:04;6.30;;;5.90;;
33794;SDS011;51430;52.242;21.118;2022-07-23T09:34:20;6.90;;;5.40;;
33794;SDS011;51430;52.242;21.118;2022-07-23T09:37:13;5.40;;;5.00;;
33794;SDS011;51430;52.242;21.118;2022-07-23T09:39:45;5.90;;;5.40;;
33794;SDS011;51430;52.242;21.118;2022-07-23T09:42:25;5.00;;;4.60;;
33794;SDS011;51430;52.242;21.118;2022-07-23T09:44:55;5.60;;;4.50;;
33794;SDS011;51430;52.242;21.118;2022-07-23T09:47:31;7.40;;;5.00;;
33794;SDS011;51430;52.242;21.118;2022-07-23T09:50:00;5.80;;;5.20;;
33794;SDS011;51430;52.242;21.118;2022-07-23T09:52:34;7.10;;;5.30;;
33794;SDS011;51430;52.242;21.118;2022-07-23T09:55:15;6.40;;;5.60;;
33794;SDS011;51430;52.242;21.118;2022-07-23T09:57:45;7.30;;;5.70;;
33794;SDS011;51430;52.242;21.118;2022-07-23T10:00:17;6.10;;;5.30;;
33794;SDS011;51430;52.242;21.118;2022-07-23T10:02:47;6.20;;;5.20;;
33794;SDS011;51430;52.242;21.118;2022-07-23T10:05:17;5.40;;;5.00;;
33794;SDS011;51430;52.242;21.118;2022-07-23T10:07:47;5.70;;;5.10;;
33794;SDS011;51430;52.242;21.118;2022-07-23T10:10:20;5.90;;;5.40;;
33794;SDS011;51430;52.242;21.118;2022-07-23T10:12:50;6.80;;;5.50;;
33794;SDS011;51430;52.242;21.118;2022-07-23T10:15:19;7.10;;;5.10;;
33794;SDS011;51430;52.242;21.118;2022-07-23T10:17:48;9.20;;;5.10;;
33794;SDS011;51430;52.242;21.118;2022-07-23T10:20:16;5.60;;;5.10;;
33794;SDS011;51430;52.242;21.118;2022-07-23T10:22:47;5.60;;;5.10;;
33794;SDS011;51430;52.242;21.118;2022-07-23T10:25:32;5.50;;;5.00;;
33794;SDS011;51430;52.242;21.118;2022-07-23T10:31:06;7.90;;;5.00;;
33794;SDS011;51430;52.242;21.118;2022-07-23T10:34:12;6.30;;;5.20;;
33794;SDS011;51430;52.242;21.118;2022-07-23T10:37:00;6.30;;;5.20;;
33794;SDS011;51430;52.242;21.118;2022-07-23T10:40:16;5.70;;;4.60;;
33794;SDS011;51430;52.242;21.118;2022-07-23T10:42:49;5.60;;;5.10;;
33794;SDS011;51430;52.242;21.118;2022-07-23T10:45:27;6.10;;;4.80;;
33794;SDS011;51430;52.242;21.118;2022-07-23T10:48:16;5.30;;;4.90;;
33794;SDS011;51430;52.242;21.118;2022-07-23T10:53:57;5.10;;;4.60;;
33794;SDS011;51430;52.242;21.118;2022-07-23T10:59:20;6.30;;;4.80;;
33794;SDS011;51430;52.242;21.118;2022-07-23T11:01:48;7.10;;;4.50;;
33794;SDS011;51430;52.242;21.118;2022-07-23T11:04:18;5.50;;;4.90;;
33794;SDS011;51430;52.242;21.118;2022-07-23T11:09:24;5.20;;;4.70;;
33794;SDS011;51430;52.242;21.118;2022-07-23T11:12:31;5.20;;;4.70;;
33794;SDS011;51430;52.242;21.118;2022-07-23T11:17:38;4.70;;;4.40;;
33794;SDS011;51430;52.242;21.118;2022-07-23T11:20:29;5.60;;;4.80;;
33794;SDS011;51430;52.242;21.118;2022-07-23T11:22:58;7.90;;;4.40;;
33794;SDS011;51430;52.242;21.118;2022-07-23T11:28:13;6.30;;;4.30;;
33794;SDS011;51430;52.242;21.118;2022-07-23T11:30:44;4.60;;;4.20;;
33794;SDS011;51430;52.242;21.118;2022-07-23T11:35:42;4.90;;;4.50;;
33794;SDS011;51430;52.242;21.118;2022-07-23T11:38:15;4.80;;;4.00;;
33794;SDS011;51430;52.242;21.118;2022-07-23T11:40:50;5.10;;;4.60;;
33794;SDS011;51430;52.242;21.118;2022-07-23T11:43:24;5.90;;;4.80;;
33794;SDS011;51430;52.242;21.118;2022-07-23T11:45:53;5.40;;;4.50;;
33794;SDS011;51430;52.242;21.118;2022-07-23T11:48:27;7.80;;;4.80;;
33794;SDS011;51430;52.242;21.118;2022-07-23T11:50:57;6.70;;;4.40;;
33794;SDS011;51430;52.242;21.118;2022-07-23T11:53:27;5.80;;;5.20;;
33794;SDS011;51430;52.242;21.118;2022-07-23T11:56:04;4.90;;;4.50;;
33794;SDS011;51430;52.242;21.118;2022-07-23T11:58:34;5.50;;;4.80;;
33794;SDS011;51430;52.242;21.118;2022-07-23T12:01:04;5.20;;;4.80;;
33794;SDS011;51430;52.242;21.118;2022-07-23T12:03:32;6.60;;;4.70;;
33794;SDS011;51430;52.242;21.118;2022-07-23T12:06:01;6.50;;;4.90;;
33794;SDS011;51430;52.242;21.118;2022-07-23T12:08:29;5.50;;;4.70;;
33794;SDS011;51430;52.242;21.118;2022-07-23T12:10:57;5.30;;;4.80;;
33794;SDS011;51430;52.242;21.118;2022-07-23T12:13:25;5.60;;;5.10;;
33794;SDS011;51430;52.242;21.118;2022-07-23T12:15:56;5.60;;;5.00;;
33794;SDS011;51430;52.242;21.118;2022-07-23T12:18:26;6.90;;;4.30;;
33794;SDS011;51430;52.242;21.118;2022-07-23T12:20:56;4.60;;;4.30;;
33794;SDS011;51430;52.242;21.118;2022-07-23T12:23:30;5.00;;;4.60;;
33794;SDS011;51430;52.242;21.118;2022-07-23T12:26:00;10.00;;;4.80;;
33794;SDS011;51430;52.242;21.118;2022-07-23T12:28:30;5.20;;;4.80;;
33794;SDS011;51430;52.242;21.118;2022-07-23T12:31:00;6.20;;;4.50;;
33794;SDS011;51430;52.242;21.118;2022-07-23T12:33:37;6.10;;;4.60;;
33794;SDS011;51430;52.242;21.118;2022-07-23T12:36:07;6.40;;;4.70;;
33794;SDS011;51430;52.242;21.118;2022-07-23T12:38:42;5.30;;;4.90;;
33794;SDS011;51430;52.242;21.118;2022-07-23T12:41:17;5.50;;;4.50;;
33794;SDS011;51430;52.242;21.118;2022-07-23T12:43:46;5.80;;;5.00;;
33794;SDS011;51430;52.242;21.118;2022-07-23T12:46:15;6.20;;;5.00;;
33794;SDS011;51430;52.242;21.118;2022-07-23T12:51:26;5.00;;;4.50;;
33794;SDS011;51430;52.242;21.118;2022-07-23T12:54:07;5.90;;;5.00;;
33794;SDS011;51430;52.242;21.118;2022-07-23T12:56:56;5.20;;;4.60;;
33794;SDS011;51430;52.242;21.118;2022-07-23T12:59:26;5.60;;;5.00;;
33794;SDS011;51430;52.242;21.118;2022-07-23T13:01:59;5.70;;;5.10;;
33794;SDS011;51430;52.242;21.118;2022-07-23T13:04:30;6.40;;;5.10;;
33794;SDS011;51430;52.242;21.118;2022-07-23T13:07:01;6.00;;;5.40;;
33794;SDS011;51430;52.242;21.118;2022-07-23T13:09:32;6.00;;;5.40;;
33794;SDS011;51430;52.242;21.118;2022-07-23T13:12:08;5.50;;;5.00;;
33794;SDS011;51430;52.242;21.118;2022-07-23T13:14:38;7.40;;;5.20;;
33794;SDS011;51430;52.242;21.118;2022-07-23T13:17:09;6.10;;;5.50;;
33794;SDS011;51430;52.242;21.118;2022-07-23T13:19:37;6.20;;;5.50;;
33794;SDS011;51430;52.242;21.118;2022-07-23T13:22:05;5.80;;;5.30;;
33794;SDS011;51430;52.242;21.118;2022-07-23T13:24:36;5.40;;;4.90;;
33794;SDS011;51430;52.242;21.118;2022-07-23T13:27:06;6.20;;;5.50;;
33794;SDS011;51430;52.242;21.118;2022-07-23T13:29:39;5.40;;;4.90;;
33794;SDS011;51430;52.242;21.118;2022-07-23T13:32:09;9.80;;;5.10;;
33794;SDS011;51430;52.242;21.118;2022-07-23T13:34:57;5.20;;;4.70;;
33794;SDS011;51430;52.242;21.118;2022-07-23T13:37:25;6.00;;;5.00;;
33794;SDS011;51430;52.242;21.118;2022-07-23T13:39:54;9.00;;;5.40;;
33794;SDS011;51430;52.242;21.118;2022-07-23T13:42:22;5.90;;;5.10;;
33794;SDS011;51430;52.242;21.118;2022-07-23T13:44:50;6.20;;;5.60;;
33794;SDS011;51430;52.242;21.118;2022-07-23T13:47:18;5.70;;;5.10;;
33794;SDS011;51430;52.242;21.118;2022-07-23T13:49:46;5.90;;;5.40;;
33794;SDS011;51430;52.242;21.118;2022-07-23T13:52:15;6.50;;;5.40;;
33794;SDS011;51430;52.242;21.118;2022-07-23T13:54:43;5.60;;;5.10;;
33794;SDS011;51430;52.242;21.118;2022-07-23T13:57:12;5.90;;;5.30;;
33794;SDS011;51430;52.242;21.118;2022-07-23T13:59:40;9.50;;;5.40;;
33794;SDS011;51430;52.242;21.118;2022-07-23T14:02:10;6.20;;;5.60;;
33794;SDS011;51430;52.242;21.118;2022-07-23T14:04:48;6.20;;;5.60;;
33794;SDS011;51430;52.242;21.118;2022-07-23T14:07:16;7.50;;;5.70;;
33794;SDS011;51430;52.242;21.118;2022-07-23T14:09:46;6.60;;;5.70;;
33794;SDS011;51430;52.242;21.118;2022-07-23T14:12:15;6.30;;;5.80;;
33794;SDS011;51430;52.242;21.118;2022-07-23T14:14:44;7.90;;;5.90;;
33794;SDS011;51430;52.242;21.118;2022-07-23T14:17:12;9.00;;;5.90;;
33794;SDS011;51430;52.242;21.118;2022-07-23T14:19:42;5.70;;;5.30;;
33794;SDS011;51430;52.242;21.118;2022-07-23T14:22:13;7.00;;;6.10;;
33794;SDS011;51430;52.242;21.118;2022-07-23T14:24:42;8.00;;;6.20;;
33794;SDS011;51430;52.242;21.118;2022-07-23T14:27:10;7.40;;;5.90;;
33794;SDS011;51430;52.242;21.118;2022-07-23T14:29:38;6.40;;;5.90;;
33794;SDS011;51430;52.242;21.118;2022-07-23T14:32:07;6.50;;;5.90;;
33794;SDS011;51430;52.242;21.118;2022-07-23T14:34:35;6.70;;;6.10;;
33794;SDS011;51430;52.242;21.118;2022-07-23T14:37:05;8.90;;;6.30;;
33794;SDS011;51430;52.242;21.118;2022-07-23T14:39:33;6.30;;;5.80;;
33794;SDS011;51430;52.242;21.118;2022-07-23T14:42:02;7.60;;;6.40;;
33794;SDS011;51430;52.242;21.118;2022-07-23T14:44:30;8.80;;;6.90;;
33794;SDS011;51430;52.242;21.118;2022-07-23T14:46:58;6.60;;;6.00;;
33794;SDS011;51430;52.242;21.118;2022-07-23T14:49:27;9.80;;;6.00;;
33794;SDS011;51430;52.242;21.118;2022-07-23T14:51:56;14.10;;;6.10;;
33794;SDS011;51430;52.242;21.118;2022-07-23T14:54:24;34.80;;;5.90;;
33794;SDS011;51430;52.242;21.118;2022-07-23T14:56:54;27.60;;;6.10;;
33794;SDS011;51430;52.242;21.118;2022-07-23T14:59:24;24.40;;;5.50;;
33794;SDS011;51430;52.242;21.118;2022-07-23T15:01:53;19.50;;;5.20;;
33794;SDS011;51430;52.242;21.118;2022-07-23T15:04:23;13.80;;;5.40;;